Pagrindinis puslapis
METAR-TAF:

METAR-TAF

Oro uostai :

Naujasis Delis, Indija

platuma: 28-34N, ilguma: 077-07E, Aukštis: 220 m

Dabartinis oras

Ataskaita buvo paskelbta 17 minutes, ne 20:30 UTC
Ramus vėjas
Temperatūra 13°C
Drėgmė 72%
Slėgis 1016 hPa
Matomumas: 1600 m
dūmai

METAR: VIDP 092030Z 00000KT 1600 R28/P2000 R29/P2000 FU NSC 13/08 Q1016 BECMG 1500 FU

Laikas: 02:17 (20:47 UTC)

Prognozė

Ataskaita buvo paskelbta 6 valandos ir 47 minutes, ne 14:00 UTC
Prognozė galioja nuo 09 metu 15 UTC su 09 metu 24 UTC
Vėjas kt iš Šiaurės
Matomumas: 1500 m
dūmai
Tapsmas
nuo 09 metu 21 UTC su 09 metu 23 UTC
Matomumas: 0800 m
Sekli rūkas

TAF: VIDP 091400Z 0915/0924 00000KT 1500 FU NSC BECMG 0921/0923 0800 MIFG

Orai ataskaitas ir orų prognozės (METAR, TAF).

turimą stotys yra geltonos ir raudonos taškus žemėlapyje.

Perkelti pele per norėdami pamatyti stoties vardą.

Tada spustelėkite, norėdami matyti oro stebėjimo ir prognozės.

Norėdami pakeisti žemėlapį: spustelėkite ant žalios mygtukų su juodo kryžiaus žemyn,; žalią mygtuką su brūkšneliu, jei norite nutolinti; arba žalių rodyklių gretimoms žemėlapius.


METAR-TAF: